Time;durP1;ratioP1;P1;durP2;ratioP2;P2;SDS_P1;SDS_P2;PMS_P1;PMS_P2;Temp;Humidity;BMP_temperature;BMP_pressure;BME280_temperature;BME280_humidity;BME280_pressure;Samples;Min_cycle;Max_cycle;Signal;HPM_P1;HPM_P2
2021/07/14 00:01:11;;;;;;;3.60;3.40;;;24.40;99.90;;;;;;5065483;28;20193;-69
2021/07/14 00:03:40;;;;;;;4.30;4.03;;;24.40;99.90;;;;;;5052599;28;20217;-69
2021/07/14 00:06:07;;;;;;;4.30;4.00;;;24.40;99.90;;;;;;5055467;28;20212;-70
2021/07/14 00:08:33;;;;;;;4.00;3.70;;;24.30;99.90;;;;;;5055135;28;20535;-70
2021/07/14 00:11:01;;;;;;;3.47;3.38;;;24.30;99.90;;;;;;5050937;28;20244;-69
2021/07/14 00:13:32;;;;;;;4.22;3.92;;;24.20;99.90;;;;;;5051666;28;20248;-69
2021/07/14 00:24:14;;;;;;;3.90;3.60;;;24.20;99.90;;;;;;5066562;28;20224;-70
2021/07/14 00:26:41;;;;;;;3.40;3.20;;;24.20;99.90;;;;;;5076342;28;20188;-70
2021/07/14 00:29:12;;;;;;;4.60;4.30;;;24.20;99.90;;;;;;5068109;28;20286;-70
2021/07/14 00:31:39;;;;;;;4.32;4.13;;;24.10;99.90;;;;;;5065968;28;20736;-70
2021/07/14 00:34:08;;;;;;;4.63;4.10;;;24.10;99.90;;;;;;5084126;28;20194;-70
2021/07/14 00:36:35;;;;;;;4.60;4.20;;;24.40;99.90;;;;;;5066216;28;20239;-70
2021/07/14 00:39:03;;;;;;;4.22;3.92;;;24.00;99.90;;;;;;5061004;28;20198;-70
2021/07/14 00:41:30;;;;;;;3.83;3.63;;;24.00;99.90;;;;;;5065330;28;20312;-70
2021/07/14 00:43:57;;;;;;;3.47;3.28;;;24.00;99.90;;;;;;5061413;28;20574;-69
2021/07/14 00:46:26;;;;;;;3.67;3.47;;;23.90;99.90;;;;;;5064241;28;20490;-69
2021/07/14 00:48:57;;;;;;;3.67;3.47;;;23.90;99.90;;;;;;5081769;28;20229;-69
2021/07/14 00:51:26;;;;;;;3.63;3.42;;;23.90;99.90;;;;;;5090268;28;20205;-69
2021/07/14 00:53:54;;;;;;;3.42;3.22;;;23.90;99.90;;;;;;5056516;28;20213;-70
2021/07/14 00:56:21;;;;;;;3.30;3.17;;;23.90;99.90;;;;;;5057028;28;20198;-69
2021/07/14 00:58:49;;;;;;;3.70;3.50;;;23.90;99.90;;;;;;5054749;28;20209;-69
2021/07/14 01:01:16;;;;;;;3.83;3.60;;;23.80;99.90;;;;;;5057839;28;20206;-69
2021/07/14 01:03:53;;;;;;;4.07;3.78;;;23.80;99.90;;;;;;5047952;28;20245;-69
2021/07/14 01:06:29;;;;;;;3.40;3.20;;;23.80;99.90;;;;;;5054962;28;20197;-69
2021/07/14 01:09:03;;;;;;;4.10;3.80;;;23.80;99.90;;;;;;5050577;28;20206;-69
2021/07/14 01:11:34;;;;;;;3.80;3.50;;;23.70;99.90;;;;;;5053556;28;20237;-69
2021/07/14 01:14:07;;;;;;;3.13;2.92;;;23.70;99.90;;;;;;5051251;28;20279;-69
2021/07/14 01:16:39;;;;;;;3.03;2.92;;;23.70;99.90;;;;;;5049573;28;20197;-69
2021/07/14 01:19:17;;;;;;;3.00;2.80;;;23.70;99.90;;;;;;5050309;28;20209;-70
2021/07/14 01:21:47;;;;;;;3.22;3.03;;;23.70;99.90;;;;;;5059277;28;20246;-70
2021/07/14 01:24:19;;;;;;;3.38;3.15;;;23.70;99.90;;;;;;5101514;27;20217;-69
2021/07/14 01:27:06;;;;;;;3.15;2.95;;;23.70;99.90;;;;;;5072275;28;20201;-69
2021/07/14 01:29:35;;;;;;;4.45;4.15;;;23.60;99.90;;;;;;5069598;28;20215;-69
2021/07/14 01:32:04;;;;;;;3.80;3.50;;;23.60;99.90;;;;;;5070590;28;20196;-69
2021/07/14 01:34:33;;;;;;;3.90;3.60;;;23.60;99.90;;;;;;5063887;28;20228;-69
2021/07/14 01:37:03;;;;;;;3.65;3.45;;;23.50;99.90;;;;;;5060241;28;20193;-70
2021/07/14 01:39:32;;;;;;;4.18;3.88;;;23.50;99.90;;;;;;5069268;28;20299;-69
2021/07/14 01:42:03;;;;;;;3.78;3.58;;;23.50;99.90;;;;;;5069627;28;20201;-70
2021/07/14 01:44:30;;;;;;;3.30;3.10;;;23.50;99.90;;;;;;5066267;28;20603;-70
2021/07/14 01:47:00;;;;;;;4.35;4.05;;;23.50;99.90;;;;;;5064933;28;20197;-70
2021/07/14 01:49:31;;;;;;;4.10;3.70;;;23.50;99.90;;;;;;5066056;28;20547;-70
2021/07/14 01:52:01;;;;;;;4.13;3.85;;;23.50;99.90;;;;;;5089141;28;20228;-70
2021/07/14 01:54:29;;;;;;;4.00;3.70;;;23.40;99.90;;;;;;5061961;28;20204;-70
2021/07/14 01:57:02;;;;;;;3.72;3.42;;;23.40;99.90;;;;;;5059911;28;20662;-70
2021/07/14 01:59:31;;;;;;;4.00;3.50;;;23.40;99.90;;;;;;5065675;28;20255;-70
2021/07/14 02:02:01;;;;;;;3.65;3.35;;;23.40;99.90;;;;;;5064598;28;20688;-69
2021/07/14 02:04:31;;;;;;;3.20;3.00;;;23.40;99.90;;;;;;5083425;28;20363;-70
2021/07/14 02:07:02;;;;;;;3.38;3.17;;;23.40;99.90;;;;;;5083788;28;20212;-71
2021/07/14 02:09:29;;;;;;;3.70;3.50;;;23.30;99.90;;;;;;5062672;28;20270;-71
2021/07/14 02:11:58;;;;;;;3.50;3.30;;;23.30;99.90;;;;;;5062911;28;20221;-71
2021/07/14 02:14:31;;;;;;;4.45;4.05;;;23.30;99.90;;;;;;5061452;28;20201;-71
2021/07/14 02:17:00;;;;;;;3.22;3.03;;;23.20;99.90;;;;;;5054903;28;20205;-67
2021/07/14 02:19:31;;;;;;;3.35;3.15;;;23.20;99.90;;;;;;5059038;28;20201;-68
2021/07/14 02:21:58;;;;;;;2.70;2.60;;;23.20;99.90;;;;;;5056628;28;20201;-66
2021/07/14 02:24:25;;;;;;;3.00;2.75;;;23.20;99.90;;;;;;5070327;28;20586;-66
2021/07/14 02:26:54;;;;;;;2.47;2.38;;;23.20;99.90;;;;;;5071597;28;20193;-66
2021/07/14 02:29:21;;;;;;;2.60;2.50;;;23.20;99.90;;;;;;5061962;28;20193;-67
2021/07/14 02:31:49;;;;;;;3.13;2.92;;;23.10;99.90;;;;;;5069947;28;20322;-67
2021/07/14 02:34:16;;;;;;;3.42;3.22;;;23.10;99.90;;;;;;5069741;28;20198;-67
2021/07/14 02:36:46;;;;;;;2.70;2.60;;;23.00;99.90;;;;;;5071271;28;20200;-67
2021/07/14 02:39:15;;;;;;;2.92;2.83;;;23.00;99.90;;;;;;5070421;28;20213;-67
2021/07/14 02:41:48;;;;;;;2.70;2.60;;;23.00;99.90;;;;;;5071169;28;20197;-67
2021/07/14 02:44:20;;;;;;;2.70;2.60;;;23.00;99.90;;;;;;5069461;28;20766;-67
2021/07/14 02:46:52;;;;;;;2.85;2.75;;;23.00;99.90;;;;;;5060422;28;20280;-68
2021/07/14 02:49:24;;;;;;;2.88;2.75;;;23.00;99.90;;;;;;5059949;28;20600;-68
2021/07/14 02:51:52;;;;;;;3.25;2.83;;;23.00;99.90;;;;;;5060881;28;20206;-67
2021/07/14 02:54:23;;;;;;;2.80;2.60;;;22.90;99.90;;;;;;5057973;28;20202;-68
2021/07/14 02:56:52;;;;;;;2.97;2.78;;;22.90;99.90;;;;;;5059299;28;20202;-68
2021/07/14 02:59:26;;;;;;;2.55;2.45;;;22.90;99.90;;;;;;5056976;28;20553;-68
2021/07/14 03:01:56;;;;;;;3.13;2.92;;;22.90;99.90;;;;;;5063446;28;20193;-67
2021/07/14 03:04:28;;;;;;;3.83;3.53;;;22.90;99.90;;;;;;5055651;28;20214;-68
2021/07/14 03:06:57;;;;;;;3.22;3.03;;;22.90;99.90;;;;;;5054044;28;20689;-68
2021/07/14 03:09:32;;;;;;;2.88;2.67;;;22.80;99.90;;;;;;5050945;28;20221;-67
2021/07/14 03:12:00;;;;;;;2.92;2.83;;;22.90;99.90;;;;;;5051793;28;20325;-66
2021/07/14 03:14:28;;;;;;;2.92;2.83;;;22.90;99.90;;;;;;5054264;28;20189;-67
2021/07/14 03:16:57;;;;;;;3.05;2.85;;;22.90;99.90;;;;;;5050842;28;20201;-67
2021/07/14 03:19:26;;;;;;;2.78;2.63;;;22.90;99.90;;;;;;5050768;28;20201;-67
2021/07/14 03:21:54;;;;;;;3.10;2.90;;;22.80;99.90;;;;;;5082051;28;20374;-67
2021/07/14 03:24:22;;;;;;;3.22;3.03;;;22.80;99.90;;;;;;5054001;28;20224;-67
2021/07/14 03:26:49;;;;;;;3.55;3.35;;;22.80;99.90;;;;;;5055525;28;20679;-67
2021/07/14 03:29:18;;;;;;;3.67;3.38;;;22.80;99.90;;;;;;5067552;28;20194;-67
2021/07/14 03:31:46;;;;;;;3.70;3.50;;;22.90;99.90;;;;;;5069015;28;20212;-67
2021/07/14 03:34:14;;;;;;;3.58;3.38;;;22.90;99.90;;;;;;5100845;28;20631;-67
2021/07/14 03:36:45;;;;;;;3.65;3.45;;;22.90;99.90;;;;;;5102444;28;20200;-66
2021/07/14 03:39:12;;;;;;;4.07;3.78;;;22.90;99.90;;;;;;5068928;28;20193;-66
2021/07/14 03:41:40;;;;;;;4.50;4.10;;;22.80;99.90;;;;;;5090184;28;20208;-67
2021/07/14 03:44:08;;;;;;;3.50;3.30;;;22.80;99.90;;;;;;5088125;28;20737;-67
2021/07/14 03:46:37;;;;;;;3.40;3.20;;;22.80;99.90;;;;;;5062324;28;20201;-67
2021/07/14 03:49:05;;;;;;;3.50;3.30;;;22.80;99.90;;;;;;5062102;28;20255;-66
2021/07/14 03:51:34;;;;;;;5.10;3.90;;;22.80;99.90;;;;;;5061109;28;20200;-67
2021/07/14 03:54:02;;;;;;;3.63;3.38;;;22.90;99.90;;;;;;5055118;28;20197;-67
2021/07/14 03:56:29;;;;;;;5.00;4.60;;;22.90;99.90;;;;;;5059996;28;20198;-67
2021/07/14 03:58:58;;;;;;;4.20;3.80;;;22.90;99.90;;;;;;5054398;28;20193;-67
2021/07/14 04:01:25;;;;;;;4.03;3.83;;;22.90;99.90;;;;;;5065922;28;20276;-67
2021/07/14 04:03:53;;;;;;;5.32;4.10;;;22.90;99.90;;;;;;5052235;28;20221;-67
2021/07/14 04:06:21;;;;;;;4.30;4.00;;;22.90;99.90;;;;;;5056286;28;20624;-67
2021/07/14 04:09:19;;;;;;;4.13;3.83;;;22.90;99.90;;;;;;5052300;28;20285;-67
2021/07/14 04:11:49;;;;;;;3.58;3.38;;;22.90;99.90;;;;;;5080933;28;20237;-67
2021/07/14 04:14:16;;;;;;;4.05;3.75;;;22.90;99.90;;;;;;5053201;28;20202;-67
2021/07/14 04:16:43;;;;;;;3.70;3.50;;;22.90;99.90;;;;;;5048984;28;20217;-67
2021/07/14 04:19:10;;;;;;;3.65;3.35;;;23.00;99.90;;;;;;5081978;28;20197;-67
2021/07/14 04:21:37;;;;;;;3.30;3.10;;;23.00;99.90;;;;;;5056236;28;20209;-67
2021/07/14 04:24:06;;;;;;;3.20;3.00;;;23.00;99.90;;;;;;5099461;27;20213;-67
2021/07/14 04:26:34;;;;;;;4.97;3.70;;;23.10;99.90;;;;;;5062643;28;20292;-67
2021/07/14 04:29:01;;;;;;;4.35;4.05;;;23.00;99.90;;;;;;5056854;28;20201;-67
2021/07/14 04:31:28;;;;;;;4.18;3.88;;;23.10;99.90;;;;;;5068022;28;20604;-67
2021/07/14 04:33:55;;;;;;;4.07;3.88;;;23.10;99.90;;;;;;5065127;28;20576;-67
2021/07/14 04:36:22;;;;;;;3.85;3.63;;;23.10;99.90;;;;;;5065890;28;20197;-67
2021/07/14 04:38:49;;;;;;;3.80;3.50;;;23.10;99.90;;;;;;5062063;28;20210;-67
2021/07/14 04:41:18;;;;;;;3.67;3.47;;;23.20;99.90;;;;;;5064895;28;20205;-67
2021/07/14 04:43:45;;;;;;;3.80;3.58;;;23.20;99.90;;;;;;5062290;28;20200;-67
2021/07/14 04:46:12;;;;;;;3.80;3.53;;;23.20;99.90;;;;;;5063557;28;20228;-67
2021/07/14 04:48:39;;;;;;;3.65;3.45;;;23.30;99.90;;;;;;5060631;28;20252;-67
2021/07/14 04:51:06;;;;;;;4.28;3.97;;;23.30;99.90;;;;;;5064230;28;20204;-67
2021/07/14 04:53:33;;;;;;;4.10;3.80;;;23.30;99.90;;;;;;5083923;28;20212;-67
2021/07/14 04:56:00;;;;;;;4.15;3.75;;;23.30;99.90;;;;;;5063365;28;20628;-67
2021/07/14 04:58:28;;;;;;;3.78;3.50;;;23.40;99.90;;;;;;5083886;28;20205;-67
2021/07/14 05:00:55;;;;;;;3.78;3.58;;;24.20;99.90;;;;;;5063546;28;20280;-67
2021/07/14 05:03:24;;;;;;;3.40;3.20;;;23.40;99.90;;;;;;5090087;28;20206;-67
2021/07/14 05:05:52;;;;;;;3.40;3.20;;;23.50;99.90;;;;;;5058340;28;20595;-67
2021/07/14 05:08:19;;;;;;;3.72;3.50;;;23.60;99.90;;;;;;5058499;28;20244;-67
2021/07/14 05:10:48;;;;;;;3.42;3.08;;;23.60;99.90;;;;;;5060679;28;20266;-67
2021/07/14 05:13:16;;;;;;;3.42;3.22;;;23.70;99.90;;;;;;5057412;28;20669;-67
2021/07/14 05:15:45;;;;;;;3.03;2.90;;;23.80;99.90;;;;;;5056127;28;20229;-67
2021/07/14 05:18:12;;;;;;;3.30;3.10;;;23.80;99.90;;;;;;5047994;28;20197;-67
2021/07/14 05:20:39;;;;;;;3.38;3.17;;;23.90;99.90;;;;;;5053674;28;20201;-67
2021/07/14 05:23:07;;;;;;;4.20;3.90;;;24.00;99.90;;;;;;5057968;28;20197;-67
2021/07/14 05:25:34;;;;;;;4.75;3.80;;;24.00;99.90;;;;;;5064684;28;20213;-67
2021/07/14 05:28:01;;;;;;;3.20;3.00;;;24.00;99.90;;;;;;5049584;28;20233;-67
2021/07/14 05:30:28;;;;;;;3.63;3.17;;;24.10;99.90;;;;;;5059529;28;20280;-67
2021/07/14 05:32:56;;;;;;;3.53;3.22;;;24.20;99.90;;;;;;5067124;28;20197;-67
2021/07/14 05:35:23;;;;;;;3.25;3.05;;;24.30;99.90;;;;;;5099651;28;20212;-68
2021/07/14 05:37:50;;;;;;;3.58;3.38;;;24.30;99.90;;;;;;5068072;28;20205;-68
2021/07/14 05:40:17;;;;;;;3.75;3.55;;;24.50;99.90;;;;;;5067262;28;20197;-68
2021/07/14 05:42:44;;;;;;;3.25;3.05;;;24.50;99.90;;;;;;5068410;28;20193;-68
2021/07/14 05:45:12;;;;;;;3.33;3.10;;;24.60;99.90;;;;;;5067337;28;20213;-68
2021/07/14 05:47:39;;;;;;;2.53;2.42;;;24.70;99.90;;;;;;5066136;28;20560;-68
2021/07/14 05:50:09;;;;;;;2.83;2.72;;;24.90;99.90;;;;;;5099499;28;20205;-68
2021/07/14 05:52:36;;;;;;;2.80;2.60;;;25.00;99.90;;;;;;5057725;28;20252;-68
2021/07/14 05:55:04;;;;;;;3.35;2.80;;;25.10;99.90;;;;;;5061066;28;20189;-68
2021/07/14 05:57:33;;;;;;;4.15;2.97;;;25.30;99.90;;;;;;5047118;28;20204;-68
2021/07/14 06:00:00;;;;;;;3.00;2.80;;;25.40;99.90;;;;;;5060412;28;20661;-68
2021/07/14 06:02:27;;;;;;;3.00;2.70;;;26.40;99.90;;;;;;5061006;28;20213;-68
2021/07/14 06:04:54;;;;;;;3.08;2.88;;;25.70;99.90;;;;;;5054345;28;20580;-69
2021/07/14 06:07:22;;;;;;;5.50;2.78;;;25.90;99.90;;;;;;5063119;28;20201;-69
2021/07/14 06:09:49;;;;;;;3.40;3.20;;;26.10;99.90;;;;;;5057806;28;20662;-69
2021/07/14 06:12:16;;;;;;;3.45;3.22;;;26.20;99.90;;;;;;5065708;28;20237;-68
2021/07/14 06:14:45;;;;;;;4.00;3.70;;;26.60;99.90;;;;;;5063544;28;20194;-68
2021/07/14 06:17:12;;;;;;;4.75;4.28;;;28.00;99.90;;;;;;5058891;28;20202;-66
2021/07/14 06:19:39;;;;;;;3.67;3.47;;;30.00;99.90;;;;;;5064472;28;20194;-67
2021/07/14 06:22:06;;;;;;;3.00;2.80;;;32.00;99.90;;;;;;5067559;28;20205;-67
2021/07/14 06:24:34;;;;;;;2.90;2.80;;;33.80;99.90;;;;;;5063038;28;20227;-68
2021/07/14 06:27:01;;;;;;;3.05;2.90;;;35.40;96.50;;;;;;5068327;28;20534;-68
2021/07/14 06:29:28;;;;;;;3.15;2.92;;;36.80;92.60;;;;;;5061867;28;20196;-68
2021/07/14 06:31:55;;;;;;;2.83;2.72;;;38.20;87.10;;;;;;5064228;28;20197;-68
2021/07/14 06:34:24;;;;;;;3.20;2.90;;;39.60;79.30;;;;;;5065335;28;20661;-68
2021/07/14 06:36:51;;;;;;;3.03;2.92;;;40.80;72.00;;;;;;5060880;28;20198;-68
2021/07/14 06:39:18;;;;;;;3.40;3.20;;;42.10;67.20;;;;;;5061289;28;20403;-68
2021/07/14 06:41:46;;;;;;;4.28;3.97;;;43.00;60.50;;;;;;5066156;28;20437;-68
2021/07/14 06:44:13;;;;;;;3.58;3.38;;;43.80;57.10;;;;;;5061097;28;20537;-68
2021/07/14 06:46:40;;;;;;;3.55;3.35;;;44.50;55.40;;;;;;5061132;28;20228;-68
2021/07/14 06:49:07;;;;;;;3.35;3.15;;;44.80;53.50;;;;;;5060570;28;20762;-68
2021/07/14 06:51:37;;;;;;;4.18;3.78;;;45.10;51.90;;;;;;5094539;27;20250;-68
2021/07/14 06:54:04;;;;;;;3.25;3.15;;;45.20;50.60;;;;;;5096887;28;20483;-68
2021/07/14 06:56:31;;;;;;;3.60;3.30;;;45.20;50.10;;;;;;5097038;27;20220;-68
2021/07/14 06:58:59;;;;;;;3.40;3.20;;;45.40;49.30;;;;;;5064018;28;20193;-67
2021/07/14 07:01:26;;;;;;;3.28;3.17;;;45.60;48.60;;;;;;5062314;28;20213;-67
2021/07/14 07:03:53;;;;;;;3.55;3.45;;;45.80;47.80;;;;;;5063844;28;20234;-67
2021/07/14 07:06:20;;;;;;;3.67;3.47;;;45.90;47.10;;;;;;5065946;28;20216;-68
2021/07/14 07:08:47;;;;;;;3.83;3.63;;;46.10;46.30;;;;;;5093876;28;20383;-67
2021/07/14 07:11:14;;;;;;;3.17;3.08;;;46.30;45.70;;;;;;5058524;28;20290;-67
2021/07/14 07:13:41;;;;;;;3.47;3.38;;;46.50;45.10;;;;;;5063980;28;20309;-67
2021/07/14 07:16:09;;;;;;;3.30;3.15;;;46.60;44.50;;;;;;5064449;28;20200;-68
2021/07/14 07:18:36;;;;;;;3.72;3.53;;;46.70;44.00;;;;;;5058321;28;20195;-67
2021/07/14 07:21:07;;;;;;;3.20;3.00;;;47.00;43.40;;;;;;5060610;28;20204;-67
2021/07/14 07:23:36;;;;;;;3.72;3.60;;;47.60;42.70;;;;;;5059693;28;20209;-68
2021/07/14 07:26:03;;;;;;;3.78;3.53;;;48.00;41.70;;;;;;5096755;28;20248;-68
2021/07/14 07:28:34;;;;;;;3.70;3.50;;;48.10;41.00;;;;;;5063767;28;20204;-67
2021/07/14 07:31:01;;;;;;;4.03;3.83;;;47.60;40.80;;;;;;5065128;28;20201;-68
2021/07/14 07:33:29;;;;;;;4.50;4.20;;;46.30;41.70;;;;;;5063662;28;20707;-67
2021/07/14 07:35:56;;;;;;;4.50;4.20;;;44.90;42.60;;;;;;5061497;28;20560;-68
2021/07/14 07:38:23;;;;;;;4.90;4.43;;;43.80;43.60;;;;;;5058367;28;20205;-66
2021/07/14 07:40:53;;;;;;;4.93;4.63;;;42.80;44.40;;;;;;5061458;28;20207;-67
2021/07/14 07:43:21;;;;;;;4.65;4.45;;;42.00;45.90;;;;;;5062387;28;20244;-67
2021/07/14 07:45:48;;;;;;;4.85;4.55;;;41.30;46.10;;;;;;5059240;28;20399;-67
2021/07/14 07:48:15;;;;;;;4.40;4.10;;;40.80;46.70;;;;;;5061762;28;20315;-68
2021/07/14 07:50:43;;;;;;;4.60;4.28;;;40.30;47.10;;;;;;5057196;28;20280;-68
2021/07/14 07:53:10;;;;;;;4.35;3.95;;;39.90;47.60;;;;;;5056212;28;20213;-68
2021/07/14 07:55:37;;;;;;;4.22;3.92;;;39.60;48.00;;;;;;5058512;28;20196;-68
2021/07/14 07:58:05;;;;;;;4.53;4.18;;;39.30;48.10;;;;;;5062005;28;20193;-68
2021/07/14 08:00:32;;;;;;;3.75;3.55;;;39.20;48.40;;;;;;5061276;28;20574;-67
2021/07/14 08:02:59;;;;;;;5.63;4.45;;;39.00;48.60;;;;;;5062377;28;20200;-68
2021/07/14 08:05:26;;;;;;;4.55;4.22;;;38.90;49.00;;;;;;5051963;28;20220;-67
2021/07/14 08:07:55;;;;;;;4.85;4.57;;;38.60;48.40;;;;;;5064118;28;20192;-67
2021/07/14 08:10:22;;;;;;;5.18;4.72;;;38.40;48.60;;;;;;5058322;28;20193;-68
2021/07/14 08:12:49;;;;;;;4.45;4.25;;;38.20;49.00;;;;;;5057435;28;20192;-68
2021/07/14 08:15:17;;;;;;;4.93;4.63;;;38.10;49.10;;;;;;5054293;28;20673;-67
2021/07/14 08:17:44;;;;;;;4.63;4.22;;;38.00;49.20;;;;;;5059843;28;20205;-67
2021/07/14 08:20:14;;;;;;;4.65;4.25;;;37.80;49.50;;;;;;5059795;28;20296;-67
2021/07/14 08:22:41;;;;;;;4.38;4.07;;;37.70;49.60;;;;;;5060617;28;20204;-68
2021/07/14 08:25:11;;;;;;;4.75;4.35;;;37.60;49.80;;;;;;5062253;28;20196;-68
2021/07/14 08:27:39;;;;;;;4.57;4.28;;;37.60;50.00;;;;;;5063234;28;20258;-68
2021/07/14 08:30:08;;;;;;;4.38;4.18;;;37.70;50.10;;;;;;5057869;28;20208;-68
2021/07/14 08:32:36;;;;;;;4.60;4.30;;;37.70;50.00;;;;;;5059533;28;20649;-68
2021/07/14 08:35:04;;;;;;;5.35;4.95;;;37.70;49.90;;;;;;5059226;28;20189;-68
2021/07/14 08:37:31;;;;;;;4.90;4.60;;;37.70;49.80;;;;;;5090513;28;20292;-68
2021/07/14 08:39:59;;;;;;;4.35;4.15;;;37.70;49.80;;;;;;5061894;28;20687;-68
2021/07/14 08:42:28;;;;;;;6.75;4.68;;;37.60;50.00;;;;;;5092984;28;20209;-67
2021/07/14 08:44:55;;;;;;;4.40;4.10;;;37.70;50.20;;;;;;5061900;28;20287;-69
2021/07/14 08:47:23;;;;;;;4.35;4.15;;;37.70;50.00;;;;;;5061813;28;20301;-68
2021/07/14 08:49:51;;;;;;;4.32;4.13;;;37.80;49.90;;;;;;5060977;28;20647;-68
2021/07/14 08:52:19;;;;;;;4.93;4.28;;;37.90;49.70;;;;;;5057411;28;20506;-67
2021/07/14 08:54:46;;;;;;;5.07;4.68;;;38.00;49.60;;;;;;5063425;28;20215;-68
2021/07/14 08:57:16;;;;;;;4.97;4.68;;;38.00;49.70;;;;;;5062940;28;20922;-68
2021/07/14 08:59:45;;;;;;;4.95;4.65;;;38.10;49.80;;;;;;5060931;28;20192;-67
2021/07/14 09:02:13;;;;;;;6.18;5.72;;;38.20;50.00;;;;;;5094418;27;20254;-68
2021/07/14 09:04:40;;;;;;;5.53;5.20;;;38.20;50.00;;;;;;5060398;28;20288;-68
2021/07/14 09:07:08;;;;;;;5.80;5.28;;;38.20;50.30;;;;;;5064509;28;20224;-68
2021/07/14 09:09:37;;;;;;;7.05;5.47;;;38.10;50.60;;;;;;5062560;28;20201;-68
2021/07/14 09:12:10;;;;;;;6.50;5.68;;;38.10;50.90;;;;;;5062008;28;20608;-67
2021/07/14 09:14:39;;;;;;;5.63;5.22;;;37.90;50.80;;;;;;5056833;28;20208;-68
2021/07/14 09:17:24;;;;;;;5.40;5.10;;;37.90;50.90;;;;;;5057205;28;20189;-67
2021/07/14 09:19:51;;;;;;;5.95;5.53;;;37.90;51.10;;;;;;5060750;28;20196;-69
2021/07/14 09:22:23;;;;;;;6.28;5.88;;;38.00;51.00;;;;;;5062359;28;20718;-68
2021/07/14 09:24:55;;;;;;;5.43;5.13;;;38.10;51.10;;;;;;5087169;28;20197;-67
2021/07/14 09:27:28;;;;;;;5.82;5.32;;;38.20;51.00;;;;;;5057213;28;20236;-68
2021/07/14 09:30:11;;;;;;;5.85;5.45;;;38.30;51.00;;;;;;5059483;28;20257;-71
2021/07/14 09:32:56;;;;;;;6.00;4.82;;;38.30;50.70;;;;;;5065093;28;20245;-71
2021/07/14 09:35:29;;;;;;;6.10;5.38;;;38.10;51.00;;;;;;5064466;28;20204;-73
2021/07/14 09:37:57;;;;;;;5.97;5.13;;;37.80;51.50;;;;;;5062427;28;20204;-72
2021/07/14 09:40:25;;;;;;;5.97;5.38;;;37.50;51.80;;;;;;5061552;28;20203;-72
2021/07/14 09:42:55;;;;;;;4.80;4.50;;;37.20;52.20;;;;;;5062430;28;20262;-72
2021/07/14 09:45:35;;;;;;;4.80;4.60;;;37.10;52.60;;;;;;5065239;28;20278;-71
2021/07/14 09:48:07;;;;;;;5.90;4.30;;;37.10;52.70;;;;;;5061870;28;20197;-72
2021/07/14 09:50:36;;;;;;;5.28;4.47;;;37.10;53.00;;;;;;5051590;28;20189;-72
2021/07/14 09:53:05;;;;;;;5.18;4.78;;;37.00;53.00;;;;;;5065529;28;20200;-70
2021/07/14 09:55:33;;;;;;;5.15;4.80;;;37.10;53.10;;;;;;5064728;28;20644;-71
2021/07/14 09:58:11;;;;;;;4.57;4.20;;;37.20;53.10;;;;;;5100401;27;20431;-71
2021/07/14 10:00:43;;;;;;;4.80;4.60;;;37.40;52.80;;;;;;5064295;28;20270;-70
2021/07/14 10:03:19;;;;;;;4.50;4.28;;;37.60;52.70;;;;;;5064372;28;20204;-71
2021/07/14 10:05:46;;;;;;;5.40;4.03;;;37.90;52.50;;;;;;5066262;28;20220;-71
2021/07/14 10:08:18;;;;;;;4.00;3.80;;;38.20;52.30;;;;;;5060581;28;20644;-71
2021/07/14 10:10:45;;;;;;;4.25;4.00;;;38.40;51.90;;;;;;5062028;28;20815;-71
2021/07/14 10:13:12;;;;;;;4.28;4.07;;;38.60;51.80;;;;;;5060949;28;20205;-70
2021/07/14 10:15:42;;;;;;;4.40;4.10;;;38.80;51.50;;;;;;5064114;28;20209;-69
2021/07/14 10:18:14;;;;;;;4.53;4.28;;;38.90;51.10;;;;;;5067393;28;20276;-68
2021/07/14 10:20:44;;;;;;;7.30;4.50;;;39.10;51.00;;;;;;5063841;28;20204;-66
2021/07/14 10:23:13;;;;;;;4.95;4.70;;;39.20;50.60;;;;;;5093685;28;20755;-68
2021/07/14 10:25:41;;;;;;;6.90;5.47;;;39.50;50.00;;;;;;5059344;28;20211;-67
2021/07/14 10:28:10;;;;;;;7.93;5.30;;;39.80;49.30;;;;;;5063508;28;20645;-68
2021/07/14 10:30:40;;;;;;;5.20;4.70;;;40.10;49.20;;;;;;5067199;28;20679;-68
2021/07/14 10:33:09;;;;;;;5.28;4.70;;;40.40;48.80;;;;;;5061439;28;20196;-68
2021/07/14 10:35:40;;;;;;;5.30;5.00;;;40.70;48.10;;;;;;5062853;28;20741;-68
2021/07/14 10:38:15;;;;;;;5.35;5.05;;;40.90;47.90;;;;;;5062343;28;20649;-68
2021/07/14 10:40:44;;;;;;;5.10;4.80;;;41.10;47.50;;;;;;5067134;28;20206;-67
2021/07/14 10:43:13;;;;;;;4.80;4.60;;;41.20;47.10;;;;;;5063382;28;20193;-68
2021/07/14 10:45:41;;;;;;;6.00;4.80;;;41.30;47.10;;;;;;5059968;28;20508;-67
2021/07/14 10:48:12;;;;;;;5.70;5.18;;;41.50;46.90;;;;;;5062267;28;20193;-68
2021/07/14 10:50:41;;;;;;;7.00;6.07;;;41.60;46.20;;;;;;5066007;28;20200;-67
2021/07/14 10:53:11;;;;;;;6.72;5.28;;;41.50;46.10;;;;;;5060845;28;20250;-67
2021/07/14 10:55:40;;;;;;;5.20;4.80;;;41.30;46.00;;;;;;5054273;28;20549;-68
2021/07/14 10:58:09;;;;;;;7.53;5.53;;;41.10;46.40;;;;;;5096927;27;20678;-67
2021/07/14 11:00:40;;;;;;;6.15;5.57;;;41.20;47.40;;;;;;5059040;28;20258;-68
2021/07/14 11:03:08;;;;;;;5.30;5.00;;;41.20;46.20;;;;;;5059539;28;20196;-68
2021/07/14 11:05:46;;;;;;;5.05;4.75;;;41.00;46.10;;;;;;5058582;28;20197;-68
2021/07/14 11:08:37;;;;;;;5.07;4.88;;;41.00;46.40;;;;;;5056223;28;20196;-68
2021/07/14 11:11:04;;;;;;;9.45;5.32;;;41.10;46.40;;;;;;5061244;28;20236;-68
2021/07/14 11:13:32;;;;;;;5.50;5.20;;;40.90;46.10;;;;;;5063608;28;20212;-68
2021/07/14 11:16:24;;;;;;;5.38;4.95;;;40.80;46.30;;;;;;5065356;28;20188;-68
2021/07/14 11:19:01;;;;;;;6.13;5.07;;;40.70;46.30;;;;;;5060561;28;20648;-68
2021/07/14 11:21:52;;;;;;;5.05;4.63;;;40.40;46.30;;;;;;5063572;28;20192;-68
2021/07/14 11:24:56;;;;;;;5.65;5.25;;;40.10;46.60;;;;;;4989233;28;20210;-68
2021/07/14 11:27:47;;;;;;;8.40;5.43;;;39.90;46.80;;;;;;4985797;28;20233;-67
2021/07/14 11:30:29;;;;;;;5.22;4.93;;;39.70;47.30;;;;;;5013743;28;20262;-67
2021/07/14 11:32:58;;;;;;;5.00;4.80;;;39.60;47.60;;;;;;5009394;28;20295;-67
2021/07/14 11:35:34;;;;;;;5.68;5.22;;;39.60;47.80;;;;;;4982872;28;20710;-67
2021/07/14 11:38:04;;;;;;;5.90;5.32;;;39.50;47.20;;;;;;4983069;28;20286;-66
2021/07/14 11:40:41;;;;;;;6.38;5.78;;;39.40;47.00;;;;;;4999681;28;20207;-68
2021/07/14 11:43:29;;;;;;;6.00;5.60;;;39.20;47.00;;;;;;4997442;28;20701;-69
2021/07/14 11:46:04;;;;;;;6.85;6.20;;;39.10;47.30;;;;;;4999601;28;20322;-67
2021/07/14 11:48:36;;;;;;;6.72;4.90;;;39.00;47.30;;;;;;5003258;28;20211;-66
2021/07/14 11:51:08;;;;;;;5.22;4.82;;;39.10;47.60;;;;;;5006563;28;20210;-68
2021/07/14 11:53:45;;;;;;;5.15;4.68;;;39.40;47.20;;;;;;4998464;28;20211;-67
2021/07/14 11:56:19;;;;;;;5.93;5.43;;;39.70;46.80;;;;;;4996507;28;20269;-68
2021/07/14 11:58:50;;;;;;;6.65;5.00;;;40.00;46.40;;;;;;4992894;28;20821;-68
2021/07/14 12:02:09;;;;;;;5.03;4.72;;;40.20;46.40;;;;;;5025616;28;20220;-67
2021/07/14 12:04:39;;;;;;;5.95;5.45;;;39.90;46.20;;;;;;5057880;28;20195;-69
2021/07/14 12:07:14;;;;;;;6.32;4.90;;;40.10;45.90;;;;;;5096180;28;20216;-68
2021/07/14 12:09:45;;;;;;;8.02;5.82;;;40.00;46.20;;;;;;5095267;27;20290;-68
2021/07/14 12:12:23;;;;;;;7.90;5.25;;;39.90;46.60;;;;;;5066187;28;20306;-67
2021/07/14 12:14:52;;;;;;;5.15;4.63;;;39.80;46.70;;;;;;5064224;28;20196;-68
2021/07/14 12:17:20;;;;;;;7.80;5.40;;;39.70;46.80;;;;;;5060672;28;20201;-68
2021/07/14 12:19:49;;;;;;;6.63;5.45;;;39.70;46.80;;;;;;5063923;28;20266;-68
2021/07/14 12:22:18;;;;;;;11.80;5.05;;;39.60;46.80;;;;;;5099615;27;20207;-69
2021/07/14 12:24:49;;;;;;;5.38;4.85;;;39.50;46.80;;;;;;5059147;28;20234;-68
2021/07/14 12:27:21;;;;;;;5.20;4.90;;;39.20;47.10;;;;;;5096698;27;20234;-69
2021/07/14 12:29:57;;;;;;;10.85;5.35;;;38.90;47.60;;;;;;5065939;28;20760;-68
2021/07/14 12:32:38;;;;;;;4.57;4.38;;;38.60;48.30;;;;;;5065641;28;20258;-67
2021/07/14 12:35:12;;;;;;;5.53;5.22;;;38.30;48.90;;;;;;5063452;28;20200;-67
2021/07/14 12:37:45;;;;;;;8.02;5.53;;;38.00;49.40;;;;;;5061764;28;20189;-67
2021/07/14 12:40:22;;;;;;;6.05;5.55;;;37.60;50.10;;;;;;5066904;28;20223;-67
2021/07/14 12:42:49;;;;;;;5.40;4.90;;;37.30;50.90;;;;;;5091279;28;20211;-67
2021/07/14 12:45:30;;;;;;;6.05;5.55;;;37.00;51.70;;;;;;5063129;28;20205;-68
2021/07/14 12:48:02;;;;;;;9.55;5.72;;;36.70;52.70;;;;;;5052618;28;20515;-70
2021/07/14 12:50:29;;;;;;;5.70;5.00;;;36.40;53.70;;;;;;5057304;28;20211;-67
2021/07/14 12:52:59;;;;;;;9.93;6.18;;;36.10;54.40;;;;;;5062444;28;20197;-68
2021/07/14 12:55:28;;;;;;;5.90;5.40;;;35.80;55.10;;;;;;5058620;28;20210;-67
2021/07/14 12:58:02;;;;;;;7.13;5.65;;;35.50;55.80;;;;;;5057971;28;20201;-68
2021/07/14 13:00:29;;;;;;;6.00;5.43;;;35.30;56.70;;;;;;5045734;28;20212;-68
2021/07/14 13:02:58;;;;;;;6.55;5.35;;;35.00;57.10;;;;;;5047059;28;20185;-67
2021/07/14 13:05:27;;;;;;;7.55;5.45;;;34.80;57.70;;;;;;5085570;28;20522;-68
2021/07/14 13:07:58;;;;;;;11.57;5.75;;;34.60;58.20;;;;;;5051679;28;20220;-67